sensor_id;sensor_type;location;lat;lon;timestamp;P1;durP1;ratioP1;P2;durP2;ratioP2
46589;SDS011;32313;48.722;9.362;2023-02-23T00:01:23;26.67;;;22.40;;
46589;SDS011;32313;48.722;9.362;2023-02-23T00:03:52;27.17;;;22.10;;
46589;SDS011;32313;48.722;9.362;2023-02-23T00:06:20;29.07;;;23.17;;
46589;SDS011;32313;48.722;9.362;2023-02-23T00:08:46;26.53;;;23.40;;
46589;SDS011;32313;48.722;9.362;2023-02-23T00:11:12;30.13;;;25.23;;
46589;SDS011;32313;48.722;9.362;2023-02-23T00:13:39;29.70;;;26.03;;
46589;SDS011;32313;48.722;9.362;2023-02-23T00:16:07;31.87;;;27.03;;
46589;SDS011;32313;48.722;9.362;2023-02-23T00:18:38;30.83;;;24.33;;
46589;SDS011;32313;48.722;9.362;2023-02-23T00:21:28;29.13;;;24.53;;
46589;SDS011;32313;48.722;9.362;2023-02-23T00:24:00;26.53;;;22.07;;
46589;SDS011;32313;48.722;9.362;2023-02-23T00:26:28;25.03;;;21.60;;
46589;SDS011;32313;48.722;9.362;2023-02-23T00:28:57;26.13;;;23.27;;
46589;SDS011;32313;48.722;9.362;2023-02-23T00:31:26;28.33;;;24.03;;
46589;SDS011;32313;48.722;9.362;2023-02-23T00:33:57;25.70;;;22.87;;
46589;SDS011;32313;48.722;9.362;2023-02-23T00:36:25;25.67;;;22.90;;
46589;SDS011;32313;48.722;9.362;2023-02-23T00:38:53;29.50;;;22.93;;
46589;SDS011;32313;48.722;9.362;2023-02-23T00:41:22;26.00;;;21.83;;
46589;SDS011;32313;48.722;9.362;2023-02-23T00:43:56;25.30;;;22.60;;
46589;SDS011;32313;48.722;9.362;2023-02-23T00:46:26;30.17;;;23.30;;
46589;SDS011;32313;48.722;9.362;2023-02-23T00:48:54;26.23;;;23.53;;
46589;SDS011;32313;48.722;9.362;2023-02-23T00:51:22;28.10;;;23.77;;
46589;SDS011;32313;48.722;9.362;2023-02-23T00:53:56;24.67;;;22.07;;
46589;SDS011;32313;48.722;9.362;2023-02-23T00:56:25;27.40;;;24.23;;
46589;SDS011;32313;48.722;9.362;2023-02-23T00:58:51;26.57;;;21.70;;
46589;SDS011;32313;48.722;9.362;2023-02-23T01:01:17;27.13;;;24.23;;
46589;SDS011;32313;48.722;9.362;2023-02-23T01:03:43;25.83;;;23.00;;
46589;SDS011;32313;48.722;9.362;2023-02-23T01:06:10;24.90;;;21.90;;
46589;SDS011;32313;48.722;9.362;2023-02-23T01:08:39;27.67;;;24.73;;
46589;SDS011;32313;48.722;9.362;2023-02-23T01:11:10;27.20;;;23.53;;
46589;SDS011;32313;48.722;9.362;2023-02-23T01:13:38;26.23;;;23.13;;
46589;SDS011;32313;48.722;9.362;2023-02-23T01:16:15;25.17;;;22.43;;
46589;SDS011;32313;48.722;9.362;2023-02-23T01:18:43;27.03;;;23.60;;
46589;SDS011;32313;48.722;9.362;2023-02-23T01:21:20;27.80;;;25.00;;
46589;SDS011;32313;48.722;9.362;2023-02-23T01:23:48;27.03;;;23.03;;
46589;SDS011;32313;48.722;9.362;2023-02-23T01:28:41;25.57;;;22.20;;
46589;SDS011;32313;48.722;9.362;2023-02-23T01:31:07;27.30;;;24.40;;
46589;SDS011;32313;48.722;9.362;2023-02-23T01:33:35;26.87;;;22.87;;
46589;SDS011;32313;48.722;9.362;2023-02-23T01:36:00;30.53;;;22.03;;
46589;SDS011;32313;48.722;9.362;2023-02-23T01:38:26;27.03;;;24.23;;
46589;SDS011;32313;48.722;9.362;2023-02-23T01:40:52;26.10;;;23.30;;
46589;SDS011;32313;48.722;9.362;2023-02-23T01:43:21;30.97;;;25.77;;
46589;SDS011;32313;48.722;9.362;2023-02-23T01:45:56;26.57;;;22.67;;
46589;SDS011;32313;48.722;9.362;2023-02-23T01:48:29;26.93;;;23.67;;
46589;SDS011;32313;48.722;9.362;2023-02-23T01:51:00;33.47;;;27.00;;
46589;SDS011;32313;48.722;9.362;2023-02-23T01:53:29;30.20;;;25.70;;
46589;SDS011;32313;48.722;9.362;2023-02-23T01:56:00;30.20;;;25.50;;
46589;SDS011;32313;48.722;9.362;2023-02-23T01:58:29;26.90;;;23.87;;
46589;SDS011;32313;48.722;9.362;2023-02-23T02:00:58;32.23;;;25.43;;
46589;SDS011;32313;48.722;9.362;2023-02-23T02:03:46;31.33;;;25.67;;
46589;SDS011;32313;48.722;9.362;2023-02-23T02:06:21;28.87;;;25.13;;
46589;SDS011;32313;48.722;9.362;2023-02-23T02:08:51;27.90;;;23.93;;
46589;SDS011;32313;48.722;9.362;2023-02-23T02:11:20;28.30;;;25.37;;
46589;SDS011;32313;48.722;9.362;2023-02-23T02:13:58;26.47;;;23.67;;
46589;SDS011;32313;48.722;9.362;2023-02-23T02:27:54;34.27;;;27.20;;
46589;SDS011;32313;48.722;9.362;2023-02-23T02:39:03;32.80;;;28.37;;
46589;SDS011;32313;48.722;9.362;2023-02-23T02:41:37;31.57;;;28.17;;
46589;SDS011;32313;48.722;9.362;2023-02-23T02:44:50;32.17;;;28.40;;
46589;SDS011;32313;48.722;9.362;2023-02-23T02:47:29;29.90;;;26.13;;
46589;SDS011;32313;48.722;9.362;2023-02-23T02:50:22;31.33;;;27.90;;
46589;SDS011;32313;48.722;9.362;2023-02-23T02:53:04;30.30;;;27.00;;
46589;SDS011;32313;48.722;9.362;2023-02-23T02:55:33;34.23;;;28.17;;
46589;SDS011;32313;48.722;9.362;2023-02-23T02:58:03;39.07;;;32.90;;
46589;SDS011;32313;48.722;9.362;2023-02-23T03:00:43;34.47;;;29.03;;
46589;SDS011;32313;48.722;9.362;2023-02-23T03:03:35;35.77;;;29.37;;
46589;SDS011;32313;48.722;9.362;2023-02-23T03:06:26;35.33;;;28.77;;
46589;SDS011;32313;48.722;9.362;2023-02-23T03:10:39;36.00;;;29.93;;
46589;SDS011;32313;48.722;9.362;2023-02-23T03:16:14;31.53;;;26.67;;
46589;SDS011;32313;48.722;9.362;2023-02-23T03:25:09;37.37;;;28.83;;
46589;SDS011;32313;48.722;9.362;2023-02-23T03:28:24;34.07;;;27.13;;
46589;SDS011;32313;48.722;9.362;2023-02-23T03:31:35;26.40;;;23.33;;
46589;SDS011;32313;48.722;9.362;2023-02-23T03:34:40;28.83;;;24.77;;
46589;SDS011;32313;48.722;9.362;2023-02-23T03:37:40;34.70;;;29.27;;
46589;SDS011;32313;48.722;9.362;2023-02-23T03:40:31;29.13;;;26.00;;
46589;SDS011;32313;48.722;9.362;2023-02-23T03:43:28;33.80;;;28.20;;
46589;SDS011;32313;48.722;9.362;2023-02-23T03:46:17;35.87;;;29.00;;
46589;SDS011;32313;48.722;9.362;2023-02-23T03:49:04;35.03;;;29.53;;
46589;SDS011;32313;48.722;9.362;2023-02-23T03:51:52;35.27;;;28.50;;
46589;SDS011;32313;48.722;9.362;2023-02-23T03:54:45;37.73;;;31.00;;
46589;SDS011;32313;48.722;9.362;2023-02-23T03:57:35;35.17;;;29.03;;
46589;SDS011;32313;48.722;9.362;2023-02-23T04:00:24;33.23;;;29.67;;
46589;SDS011;32313;48.722;9.362;2023-02-23T04:03:14;34.10;;;29.33;;
46589;SDS011;32313;48.722;9.362;2023-02-23T04:06:02;36.47;;;30.57;;
46589;SDS011;32313;48.722;9.362;2023-02-23T04:08:50;34.20;;;28.73;;
46589;SDS011;32313;48.722;9.362;2023-02-23T04:11:51;33.43;;;29.63;;
46589;SDS011;32313;48.722;9.362;2023-02-23T04:15:18;33.33;;;25.80;;
46589;SDS011;32313;48.722;9.362;2023-02-23T04:17:41;35.60;;;31.83;;
46589;SDS011;32313;48.722;9.362;2023-02-23T04:20:08;39.00;;;32.93;;
46589;SDS011;32313;48.722;9.362;2023-02-23T04:22:36;45.10;;;36.37;;
46589;SDS011;32313;48.722;9.362;2023-02-23T04:25:02;37.77;;;33.07;;
46589;SDS011;32313;48.722;9.362;2023-02-23T04:27:30;39.97;;;33.93;;
46589;SDS011;32313;48.722;9.362;2023-02-23T04:29:56;34.97;;;31.23;;
46589;SDS011;32313;48.722;9.362;2023-02-23T04:32:22;36.17;;;32.27;;
46589;SDS011;32313;48.722;9.362;2023-02-23T04:34:47;34.00;;;29.70;;
46589;SDS011;32313;48.722;9.362;2023-02-23T04:37:14;38.30;;;32.87;;
46589;SDS011;32313;48.722;9.362;2023-02-23T04:39:40;39.23;;;31.97;;
46589;SDS011;32313;48.722;9.362;2023-02-23T04:42:12;37.80;;;31.67;;
46589;SDS011;32313;48.722;9.362;2023-02-23T04:44:38;37.10;;;32.00;;
46589;SDS011;32313;48.722;9.362;2023-02-23T04:47:03;34.00;;;29.43;;
46589;SDS011;32313;48.722;9.362;2023-02-23T04:49:29;36.67;;;31.47;;
46589;SDS011;32313;48.722;9.362;2023-02-23T04:51:55;34.77;;;30.10;;
46589;SDS011;32313;48.722;9.362;2023-02-23T04:54:21;36.13;;;31.50;;
46589;SDS011;32313;48.722;9.362;2023-02-23T04:56:46;35.83;;;30.57;;
46589;SDS011;32313;48.722;9.362;2023-02-23T04:59:12;39.07;;;32.87;;
46589;SDS011;32313;48.722;9.362;2023-02-23T05:01:38;38.37;;;32.20;;
46589;SDS011;32313;48.722;9.362;2023-02-23T05:04:04;37.83;;;33.77;;
46589;SDS011;32313;48.722;9.362;2023-02-23T05:06:29;35.77;;;31.47;;
46589;SDS011;32313;48.722;9.362;2023-02-23T05:08:55;34.23;;;30.43;;
46589;SDS011;32313;48.722;9.362;2023-02-23T05:11:21;37.83;;;31.10;;
46589;SDS011;32313;48.722;9.362;2023-02-23T05:13:47;36.07;;;31.47;;
46589;SDS011;32313;48.722;9.362;2023-02-23T05:16:12;40.30;;;32.27;;
46589;SDS011;32313;48.722;9.362;2023-02-23T05:18:38;33.27;;;29.67;;
46589;SDS011;32313;48.722;9.362;2023-02-23T05:21:04;38.20;;;32.33;;
46589;SDS011;32313;48.722;9.362;2023-02-23T05:23:32;36.50;;;32.03;;
46589;SDS011;32313;48.722;9.362;2023-02-23T05:26:03;34.20;;;30.53;;
46589;SDS011;32313;48.722;9.362;2023-02-23T05:28:31;36.60;;;32.13;;
46589;SDS011;32313;48.722;9.362;2023-02-23T05:30:57;39.23;;;33.30;;
46589;SDS011;32313;48.722;9.362;2023-02-23T05:33:23;40.40;;;34.50;;
46589;SDS011;32313;48.722;9.362;2023-02-23T05:35:49;37.03;;;32.97;;
46589;SDS011;32313;48.722;9.362;2023-02-23T05:38:14;39.60;;;33.40;;
46589;SDS011;32313;48.722;9.362;2023-02-23T05:40:40;36.63;;;31.40;;
46589;SDS011;32313;48.722;9.362;2023-02-23T05:43:06;41.20;;;32.30;;
46589;SDS011;32313;48.722;9.362;2023-02-23T05:45:31;47.83;;;34.20;;
46589;SDS011;32313;48.722;9.362;2023-02-23T05:47:57;39.63;;;34.13;;
46589;SDS011;32313;48.722;9.362;2023-02-23T05:50:23;37.97;;;32.37;;
46589;SDS011;32313;48.722;9.362;2023-02-23T05:52:51;41.40;;;33.90;;
46589;SDS011;32313;48.722;9.362;2023-02-23T05:55:16;42.60;;;35.57;;
46589;SDS011;32313;48.722;9.362;2023-02-23T05:57:42;38.23;;;31.77;;
46589;SDS011;32313;48.722;9.362;2023-02-23T06:00:10;36.33;;;31.90;;
46589;SDS011;32313;48.722;9.362;2023-02-23T06:02:37;40.60;;;32.80;;
46589;SDS011;32313;48.722;9.362;2023-02-23T06:05:03;40.47;;;34.57;;
46589;SDS011;32313;48.722;9.362;2023-02-23T06:07:30;46.17;;;36.20;;
46589;SDS011;32313;48.722;9.362;2023-02-23T06:09:56;40.97;;;34.73;;
46589;SDS011;32313;48.722;9.362;2023-02-23T06:12:21;41.20;;;36.13;;
46589;SDS011;32313;48.722;9.362;2023-02-23T06:14:48;40.67;;;33.83;;
46589;SDS011;32313;48.722;9.362;2023-02-23T06:17:15;38.20;;;32.50;;
46589;SDS011;32313;48.722;9.362;2023-02-23T06:19:42;40.27;;;34.93;;
46589;SDS011;32313;48.722;9.362;2023-02-23T06:22:07;42.30;;;33.00;;
46589;SDS011;32313;48.722;9.362;2023-02-23T06:24:33;41.27;;;33.00;;
46589;SDS011;32313;48.722;9.362;2023-02-23T06:26:59;43.20;;;35.67;;
46589;SDS011;32313;48.722;9.362;2023-02-23T06:29:25;38.10;;;32.63;;
46589;SDS011;32313;48.722;9.362;2023-02-23T06:31:50;41.93;;;35.13;;
46589;SDS011;32313;48.722;9.362;2023-02-23T06:34:16;39.73;;;33.97;;
46589;SDS011;32313;48.722;9.362;2023-02-23T06:36:43;41.17;;;34.10;;
46589;SDS011;32313;48.722;9.362;2023-02-23T06:39:09;39.93;;;32.17;;
46589;SDS011;32313;48.722;9.362;2023-02-23T06:41:35;41.00;;;35.20;;
46589;SDS011;32313;48.722;9.362;2023-02-23T06:44:01;42.97;;;36.03;;
46589;SDS011;32313;48.722;9.362;2023-02-23T06:46:27;49.33;;;37.33;;
46589;SDS011;32313;48.722;9.362;2023-02-23T06:48:53;45.60;;;36.80;;
46589;SDS011;32313;48.722;9.362;2023-02-23T06:51:20;46.87;;;36.67;;
46589;SDS011;32313;48.722;9.362;2023-02-23T06:53:46;51.07;;;39.03;;
46589;SDS011;32313;48.722;9.362;2023-02-23T06:56:11;41.93;;;35.50;;
46589;SDS011;32313;48.722;9.362;2023-02-23T06:58:38;50.40;;;38.60;;
46589;SDS011;32313;48.722;9.362;2023-02-23T07:01:04;50.60;;;35.97;;
46589;SDS011;32313;48.722;9.362;2023-02-23T07:03:30;52.77;;;36.50;;
46589;SDS011;32313;48.722;9.362;2023-02-23T07:05:56;53.40;;;39.10;;
46589;SDS011;32313;48.722;9.362;2023-02-23T07:08:22;60.00;;;41.20;;
46589;SDS011;32313;48.722;9.362;2023-02-23T07:10:48;46.43;;;36.77;;
46589;SDS011;32313;48.722;9.362;2023-02-23T07:13:13;49.77;;;38.30;;
46589;SDS011;32313;48.722;9.362;2023-02-23T07:15:39;52.10;;;40.13;;
46589;SDS011;32313;48.722;9.362;2023-02-23T07:18:05;52.07;;;37.97;;
46589;SDS011;32313;48.722;9.362;2023-02-23T07:20:31;43.30;;;36.77;;
46589;SDS011;32313;48.722;9.362;2023-02-23T07:22:58;49.83;;;39.27;;
46589;SDS011;32313;48.722;9.362;2023-02-23T07:25:27;50.63;;;39.77;;
46589;SDS011;32313;48.722;9.362;2023-02-23T07:27:53;50.43;;;37.70;;
46589;SDS011;32313;48.722;9.362;2023-02-23T07:30:19;46.87;;;35.70;;
46589;SDS011;32313;48.722;9.362;2023-02-23T07:32:49;46.87;;;38.17;;
46589;SDS011;32313;48.722;9.362;2023-02-23T07:35:18;50.70;;;39.47;;
46589;SDS011;32313;48.722;9.362;2023-02-23T07:37:44;46.87;;;35.00;;
46589;SDS011;32313;48.722;9.362;2023-02-23T07:40:10;53.13;;;39.63;;
46589;SDS011;32313;48.722;9.362;2023-02-23T07:42:36;48.40;;;37.43;;
46589;SDS011;32313;48.722;9.362;2023-02-23T07:45:03;41.90;;;34.80;;
46589;SDS011;32313;48.722;9.362;2023-02-23T07:47:29;47.00;;;37.47;;
46589;SDS011;32313;48.722;9.362;2023-02-23T07:49:58;42.90;;;35.37;;
46589;SDS011;32313;48.722;9.362;2023-02-23T07:52:26;40.50;;;35.73;;
46589;SDS011;32313;48.722;9.362;2023-02-23T07:54:52;46.83;;;36.63;;
46589;SDS011;32313;48.722;9.362;2023-02-23T07:57:18;48.67;;;40.70;;
46589;SDS011;32313;48.722;9.362;2023-02-23T07:59:45;48.00;;;39.30;;
46589;SDS011;32313;48.722;9.362;2023-02-23T08:02:12;48.03;;;41.53;;
46589;SDS011;32313;48.722;9.362;2023-02-23T08:04:38;49.80;;;39.93;;
46589;SDS011;32313;48.722;9.362;2023-02-23T08:07:05;46.57;;;37.73;;
46589;SDS011;32313;48.722;9.362;2023-02-23T08:09:31;45.93;;;38.50;;
46589;SDS011;32313;48.722;9.362;2023-02-23T08:11:59;46.23;;;37.77;;
46589;SDS011;32313;48.722;9.362;2023-02-23T08:14:28;44.80;;;37.70;;
46589;SDS011;32313;48.722;9.362;2023-02-23T08:16:53;43.13;;;35.53;;
46589;SDS011;32313;48.722;9.362;2023-02-23T08:19:19;46.10;;;36.77;;
46589;SDS011;32313;48.722;9.362;2023-02-23T08:21:47;45.13;;;34.57;;
46589;SDS011;32313;48.722;9.362;2023-02-23T08:24:15;50.03;;;35.70;;
46589;SDS011;32313;48.722;9.362;2023-02-23T08:26:41;46.00;;;35.43;;
46589;SDS011;32313;48.722;9.362;2023-02-23T08:29:07;46.13;;;38.47;;
46589;SDS011;32313;48.722;9.362;2023-02-23T08:31:33;45.13;;;36.23;;
46589;SDS011;32313;48.722;9.362;2023-02-23T08:33:59;43.83;;;35.97;;
46589;SDS011;32313;48.722;9.362;2023-02-23T08:36:25;50.40;;;39.33;;
46589;SDS011;32313;48.722;9.362;2023-02-23T08:38:51;51.27;;;39.37;;
46589;SDS011;32313;48.722;9.362;2023-02-23T08:41:18;48.90;;;37.93;;
46589;SDS011;32313;48.722;9.362;2023-02-23T08:43:44;47.47;;;36.93;;
46589;SDS011;32313;48.722;9.362;2023-02-23T08:46:10;42.43;;;34.73;;
46589;SDS011;32313;48.722;9.362;2023-02-23T08:48:37;39.40;;;32.80;;
46589;SDS011;32313;48.722;9.362;2023-02-23T08:51:04;45.30;;;36.17;;
46589;SDS011;32313;48.722;9.362;2023-02-23T08:53:31;40.63;;;34.90;;
46589;SDS011;32313;48.722;9.362;2023-02-23T08:55:57;41.07;;;34.20;;
46589;SDS011;32313;48.722;9.362;2023-02-23T08:58:25;36.53;;;32.37;;
46589;SDS011;32313;48.722;9.362;2023-02-23T09:00:51;38.30;;;34.03;;
46589;SDS011;32313;48.722;9.362;2023-02-23T09:03:17;38.93;;;32.70;;
46589;SDS011;32313;48.722;9.362;2023-02-23T09:05:44;40.17;;;34.53;;
46589;SDS011;32313;48.722;9.362;2023-02-23T09:08:11;41.10;;;33.80;;
46589;SDS011;32313;48.722;9.362;2023-02-23T09:10:37;37.93;;;32.60;;
46589;SDS011;32313;48.722;9.362;2023-02-23T09:13:03;38.23;;;32.40;;
46589;SDS011;32313;48.722;9.362;2023-02-23T09:15:29;35.37;;;31.53;;
46589;SDS011;32313;48.722;9.362;2023-02-23T09:17:59;35.43;;;30.70;;
46589;SDS011;32313;48.722;9.362;2023-02-23T09:20:26;37.47;;;31.80;;
46589;SDS011;32313;48.722;9.362;2023-02-23T09:22:52;35.20;;;30.73;;
46589;SDS011;32313;48.722;9.362;2023-02-23T09:25:17;40.00;;;32.07;;
46589;SDS011;32313;48.722;9.362;2023-02-23T09:27:47;33.93;;;30.27;;
46589;SDS011;32313;48.722;9.362;2023-02-23T09:30:17;36.13;;;29.47;;
46589;SDS011;32313;48.722;9.362;2023-02-23T09:32:45;32.47;;;28.60;;
46589;SDS011;32313;48.722;9.362;2023-02-23T09:35:11;36.17;;;30.60;;
46589;SDS011;32313;48.722;9.362;2023-02-23T09:37:42;34.07;;;30.23;;
46589;SDS011;32313;48.722;9.362;2023-02-23T09:40:15;32.57;;;29.03;;
46589;SDS011;32313;48.722;9.362;2023-02-23T09:42:57;36.53;;;29.97;;
46589;SDS011;32313;48.722;9.362;2023-02-23T09:50:56;32.40;;;28.93;;
46589;SDS011;32313;48.722;9.362;2023-02-23T09:53:46;30.47;;;26.00;;
46589;SDS011;32313;48.722;9.362;2023-02-23T09:56:29;27.40;;;24.53;;
46589;SDS011;32313;48.722;9.362;2023-02-23T09:58:59;28.67;;;25.57;;
46589;SDS011;32313;48.722;9.362;2023-02-23T10:07:11;30.00;;;26.70;;
46589;SDS011;32313;48.722;9.362;2023-02-23T10:12:45;22.37;;;20.10;;
46589;SDS011;32313;48.722;9.362;2023-02-23T10:18:34;22.97;;;20.57;;
46589;SDS011;32313;48.722;9.362;2023-02-23T10:21:02;20.30;;;18.20;;
46589;SDS011;32313;48.722;9.362;2023-02-23T10:23:38;22.00;;;17.70;;
46589;SDS011;32313;48.722;9.362;2023-02-23T10:26:10;19.77;;;17.67;;
46589;SDS011;32313;48.722;9.362;2023-02-23T10:28:45;23.47;;;17.57;;
46589;SDS011;32313;48.722;9.362;2023-02-23T10:34:15;19.00;;;17.03;;
46589;SDS011;32313;48.722;9.362;2023-02-23T10:39:10;19.10;;;15.30;;
46589;SDS011;32313;48.722;9.362;2023-02-23T10:41:37;17.13;;;14.47;;
46589;SDS011;32313;48.722;9.362;2023-02-23T10:44:03;17.57;;;14.57;;
46589;SDS011;32313;48.722;9.362;2023-02-23T10:46:39;15.87;;;13.70;;
46589;SDS011;32313;48.722;9.362;2023-02-23T10:49:05;16.53;;;13.87;;
46589;SDS011;32313;48.722;9.362;2023-02-23T10:51:35;14.47;;;12.97;;
46589;SDS011;32313;48.722;9.362;2023-02-23T10:57:00;14.40;;;12.27;;
46589;SDS011;32313;48.722;9.362;2023-02-23T10:59:27;14.83;;;12.40;;
46589;SDS011;32313;48.722;9.362;2023-02-23T11:01:52;14.93;;;12.50;;
46589;SDS011;32313;48.722;9.362;2023-02-23T11:06:44;14.13;;;12.73;;
46589;SDS011;32313;48.722;9.362;2023-02-23T11:09:26;15.03;;;12.80;;
46589;SDS011;32313;48.722;9.362;2023-02-23T11:12:13;13.40;;;11.27;;
46589;SDS011;32313;48.722;9.362;2023-02-23T11:14:41;13.80;;;11.47;;
46589;SDS011;32313;48.722;9.362;2023-02-23T11:17:09;12.67;;;11.30;;
46589;SDS011;32313;48.722;9.362;2023-02-23T11:19:47;12.90;;;10.00;;
46589;SDS011;32313;48.722;9.362;2023-02-23T11:22:18;12.27;;;10.67;;
46589;SDS011;32313;48.722;9.362;2023-02-23T11:24:47;12.00;;;9.93;;
46589;SDS011;32313;48.722;9.362;2023-02-23T11:27:20;12.17;;;10.13;;
46589;SDS011;32313;48.722;9.362;2023-02-23T11:29:49;11.67;;;9.93;;
46589;SDS011;32313;48.722;9.362;2023-02-23T11:32:18;10.60;;;9.50;;
46589;SDS011;32313;48.722;9.362;2023-02-23T11:37:58;13.20;;;9.13;;
46589;SDS011;32313;48.722;9.362;2023-02-23T11:40:40;11.63;;;9.87;;
46589;SDS011;32313;48.722;9.362;2023-02-23T11:45:32;11.47;;;8.50;;
46589;SDS011;32313;48.722;9.362;2023-02-23T11:48:26;9.23;;;7.90;;
46589;SDS011;32313;48.722;9.362;2023-02-23T11:50:55;8.60;;;7.30;;
46589;SDS011;32313;48.722;9.362;2023-02-23T11:53:27;9.77;;;7.77;;
46589;SDS011;32313;48.722;9.362;2023-02-23T11:56:06;10.87;;;7.83;;
46589;SDS011;32313;48.722;9.362;2023-02-23T11:58:39;8.33;;;7.40;;
46589;SDS011;32313;48.722;9.362;2023-02-23T12:01:13;7.87;;;6.43;;
46589;SDS011;32313;48.722;9.362;2023-02-23T12:03:52;7.97;;;5.87;;
46589;SDS011;32313;48.722;9.362;2023-02-23T12:06:30;8.27;;;7.03;;
46589;SDS011;32313;48.722;9.362;2023-02-23T12:09:16;7.97;;;6.83;;
46589;SDS011;32313;48.722;9.362;2023-02-23T12:11:57;7.97;;;6.43;;
46589;SDS011;32313;48.722;9.362;2023-02-23T12:17:03;8.23;;;6.67;;
46589;SDS011;32313;48.722;9.362;2023-02-23T12:19:35;8.37;;;5.60;;
46589;SDS011;32313;48.722;9.362;2023-02-23T12:22:27;8.00;;;5.77;;
46589;SDS011;32313;48.722;9.362;2023-02-23T12:25:02;6.43;;;5.33;;
46589;SDS011;32313;48.722;9.362;2023-02-23T12:30:17;7.80;;;4.80;;
46589;SDS011;32313;48.722;9.362;2023-02-23T12:35:54;5.97;;;4.23;;
46589;SDS011;32313;48.722;9.362;2023-02-23T12:38:24;5.13;;;3.90;;
46589;SDS011;32313;48.722;9.362;2023-02-23T12:41:10;4.87;;;4.13;;
46589;SDS011;32313;48.722;9.362;2023-02-23T12:46:29;5.73;;;4.30;;
46589;SDS011;32313;48.722;9.362;2023-02-23T12:49:02;7.60;;;4.13;;
46589;SDS011;32313;48.722;9.362;2023-02-23T12:51:43;7.80;;;4.70;;
46589;SDS011;32313;48.722;9.362;2023-02-23T12:54:10;6.20;;;4.37;;
46589;SDS011;32313;48.722;9.362;2023-02-23T12:56:55;7.80;;;4.03;;
46589;SDS011;32313;48.722;9.362;2023-02-23T13:05:19;6.63;;;4.03;;
46589;SDS011;32313;48.722;9.362;2023-02-23T13:07:54;5.70;;;4.10;;
46589;SDS011;32313;48.722;9.362;2023-02-23T13:23:38;7.70;;;4.50;;
46589;SDS011;32313;48.722;9.362;2023-02-23T13:28:55;6.60;;;4.17;;
46589;SDS011;32313;48.722;9.362;2023-02-23T13:31:24;6.87;;;4.03;;
46589;SDS011;32313;48.722;9.362;2023-02-23T13:33:53;8.53;;;5.00;;
46589;SDS011;32313;48.722;9.362;2023-02-23T13:36:22;7.10;;;4.20;;
46589;SDS011;32313;48.722;9.362;2023-02-23T13:41:43;6.60;;;4.40;;
46589;SDS011;32313;48.722;9.362;2023-02-23T13:44:37;7.03;;;4.53;;
46589;SDS011;32313;48.722;9.362;2023-02-23T13:50:13;7.13;;;4.33;;
46589;SDS011;32313;48.722;9.362;2023-02-23T13:52:41;5.43;;;4.40;;
46589;SDS011;32313;48.722;9.362;2023-02-23T13:58:02;7.57;;;4.83;;
46589;SDS011;32313;48.722;9.362;2023-02-23T14:00:28;8.00;;;4.97;;
46589;SDS011;32313;48.722;9.362;2023-02-23T14:02:54;4.40;;;4.00;;
46589;SDS011;32313;48.722;9.362;2023-02-23T14:05:21;7.27;;;4.43;;
46589;SDS011;32313;48.722;9.362;2023-02-23T14:07:55;8.30;;;4.73;;
46589;SDS011;32313;48.722;9.362;2023-02-23T14:10:36;6.60;;;4.87;;
46589;SDS011;32313;48.722;9.362;2023-02-23T14:20:51;7.97;;;4.63;;
46589;SDS011;32313;48.722;9.362;2023-02-23T14:25:49;6.73;;;5.10;;
46589;SDS011;32313;48.722;9.362;2023-02-23T14:28:25;4.90;;;4.07;;
46589;SDS011;32313;48.722;9.362;2023-02-23T14:31:01;6.13;;;4.40;;
46589;SDS011;32313;48.722;9.362;2023-02-23T14:38:49;5.67;;;4.13;;
46589;SDS011;32313;48.722;9.362;2023-02-23T14:41:23;8.27;;;4.50;;
46589;SDS011;32313;48.722;9.362;2023-02-23T14:43:52;7.67;;;4.50;;
46589;SDS011;32313;48.722;9.362;2023-02-23T14:46:30;6.43;;;4.03;;
46589;SDS011;32313;48.722;9.362;2023-02-23T14:49:00;6.50;;;4.90;;
46589;SDS011;32313;48.722;9.362;2023-02-23T14:54:00;6.60;;;4.90;;
46589;SDS011;32313;48.722;9.362;2023-02-23T14:56:43;6.60;;;4.87;;
46589;SDS011;32313;48.722;9.362;2023-02-23T14:59:14;6.93;;;4.77;;
46589;SDS011;32313;48.722;9.362;2023-02-23T15:01:47;9.80;;;5.20;;
46589;SDS011;32313;48.722;9.362;2023-02-23T15:04:23;6.20;;;5.37;;
46589;SDS011;32313;48.722;9.362;2023-02-23T15:06:51;7.63;;;4.80;;
46589;SDS011;32313;48.722;9.362;2023-02-23T15:12:12;8.93;;;5.93;;
46589;SDS011;32313;48.722;9.362;2023-02-23T15:14:44;9.10;;;5.63;;
46589;SDS011;32313;48.722;9.362;2023-02-23T15:17:13;9.27;;;6.10;;
46589;SDS011;32313;48.722;9.362;2023-02-23T15:19:42;6.33;;;5.70;;
46589;SDS011;32313;48.722;9.362;2023-02-23T15:22:13;7.73;;;5.30;;
46589;SDS011;32313;48.722;9.362;2023-02-23T15:24:46;8.40;;;5.57;;
46589;SDS011;32313;48.722;9.362;2023-02-23T15:27:21;6.30;;;5.43;;
46589;SDS011;32313;48.722;9.362;2023-02-23T15:29:51;10.27;;;6.03;;
46589;SDS011;32313;48.722;9.362;2023-02-23T15:34:45;8.63;;;6.03;;
46589;SDS011;32313;48.722;9.362;2023-02-23T15:37:13;7.13;;;5.67;;
46589;SDS011;32313;48.722;9.362;2023-02-23T15:39:59;11.47;;;6.57;;
46589;SDS011;32313;48.722;9.362;2023-02-23T15:42:35;10.77;;;6.63;;
46589;SDS011;32313;48.722;9.362;2023-02-23T15:47:52;10.60;;;6.17;;
46589;SDS011;32313;48.722;9.362;2023-02-23T15:50:32;9.00;;;6.17;;
46589;SDS011;32313;48.722;9.362;2023-02-23T15:53:12;7.10;;;5.70;;
46589;SDS011;32313;48.722;9.362;2023-02-23T15:56:03;6.47;;;4.80;;
46589;SDS011;32313;48.722;9.362;2023-02-23T15:58:39;6.57;;;5.07;;
46589;SDS011;32313;48.722;9.362;2023-02-23T16:01:11;11.00;;;5.80;;
46589;SDS011;32313;48.722;9.362;2023-02-23T16:11:44;8.53;;;6.00;;
46589;SDS011;32313;48.722;9.362;2023-02-23T16:14:15;11.20;;;5.93;;
46589;SDS011;32313;48.722;9.362;2023-02-23T16:16:44;8.43;;;6.23;;
46589;SDS011;32313;48.722;9.362;2023-02-23T16:19:14;8.60;;;6.27;;
46589;SDS011;32313;48.722;9.362;2023-02-23T16:21:42;11.03;;;6.37;;
46589;SDS011;32313;48.722;9.362;2023-02-23T16:24:17;9.23;;;6.60;;
46589;SDS011;32313;48.722;9.362;2023-02-23T16:26:56;9.80;;;6.70;;
46589;SDS011;32313;48.722;9.362;2023-02-23T16:29:37;6.93;;;5.70;;
46589;SDS011;32313;48.722;9.362;2023-02-23T16:32:18;11.93;;;6.13;;
46589;SDS011;32313;48.722;9.362;2023-02-23T16:34:49;8.70;;;6.23;;
46589;SDS011;32313;48.722;9.362;2023-02-23T16:37:20;11.53;;;7.23;;
46589;SDS011;32313;48.722;9.362;2023-02-23T16:39:49;9.73;;;6.13;;
46589;SDS011;32313;48.722;9.362;2023-02-23T16:44:50;9.23;;;6.53;;
46589;SDS011;32313;48.722;9.362;2023-02-23T16:47:26;9.40;;;6.20;;
46589;SDS011;32313;48.722;9.362;2023-02-23T16:50:00;12.30;;;6.90;;
46589;SDS011;32313;48.722;9.362;2023-02-23T16:52:36;10.17;;;6.83;;
46589;SDS011;32313;48.722;9.362;2023-02-23T16:55:02;11.30;;;7.00;;
46589;SDS011;32313;48.722;9.362;2023-02-23T16:57:38;9.23;;;6.53;;
46589;SDS011;32313;48.722;9.362;2023-02-23T17:00:05;9.83;;;7.00;;
46589;SDS011;32313;48.722;9.362;2023-02-23T17:02:42;6.80;;;6.10;;
46589;SDS011;32313;48.722;9.362;2023-02-23T17:05:12;13.50;;;9.57;;
46589;SDS011;32313;48.722;9.362;2023-02-23T17:07:39;16.43;;;9.93;;
46589;SDS011;32313;48.722;9.362;2023-02-23T17:10:06;12.80;;;9.13;;
46589;SDS011;32313;48.722;9.362;2023-02-23T17:12:33;10.33;;;7.90;;
46589;SDS011;32313;48.722;9.362;2023-02-23T17:14:58;12.23;;;8.17;;
46589;SDS011;32313;48.722;9.362;2023-02-23T17:17:24;8.50;;;7.53;;
46589;SDS011;32313;48.722;9.362;2023-02-23T17:19:49;8.00;;;6.90;;